Accueil
METAR-TAF:

METAR-TAF

Aéroports :

Khartoum, Soudan

Aéroport international de Khartoum

latitude: 15-36N, longitude: 032-33E, altitude: 382 m

Observation

Le bulletin a été fait il y a 35 minutes, à 18:30 UTC
Vent 19 kt de nord/nord-ouest
Température 36°C
Humidité 8%
Pression 1008 hPa
Visibilité 10 km ou plus
pas de nuages en-dessous de 1500 mètres et pas de cumulonimbus.

METAR: HSSS 241830Z 34019KT CAVOK 36/M03 Q1008 NOSIG

Heure: 22:05 (19:05 UTC)

Prévision

Le bulletin a été fait il y a 2 heures et 5 minutes, à 17:00 UTC
Prévision valable du 24 à 18 UTC au 25 à 24 UTC
Vent 14 kt de nord/nord-ouest avec des rafales jusqu'à 24 kt
Visibilité: 6000 m
Temporairement
du 24 à 18 UTC au 24 à 21 UTC
Visibilité: 4000 m
Chasse-sable élevée

TAF: HSSS 241700Z 2418/2524 34014G24KT 6000 TEMPO 2418/2421 4000 BLSA

Observations et prévisions météorologiques de plus de 4000 aéroports (messages METAR et TAF).

Les stations disponibles sont représentées par des disques jaunes et rouges sur la carte.

Passer la souris dessus pour voir le nom de la station.

Cliquer dessus pour voir les observations et prévisions météorologiques.

Pour changer de carte: cliquez sur les boutons verts avec une croix noire pour zoomer, sur le bouton vert avec un tiret pour effectuer un zoom arrière, ou sur les flèches vertes pour les cartes adjacentes.


METAR-TAF: